Station: Norfolk Island  

  Atmospheric Gas Attenuation - ITU Rec 676-11   ----------------- dB/100km -----------------
Date Time Temp RH % AH g/m3 Dew Point Wind Direction Speed kph Gust kph Barometer mB Rainfall Since 9am 24GHz 47GHz 76GHz 122GHz 134GHz 241GHz
08/05 12:30 23.5 86 18.19 21 19 24 1012.8 0 39.4 39.2 74.8 197.9 216.6 752.2
08/05 12:20 23.6 85 18.08 20.9 20 30 1013 0 39.1 38.9 74.2 196.3 214.7 745.4
08/05 12:10 23.6 86 18.29 21.1 20 32 1013 0 39.6 39.3 75.2 198.9 217.9 756.7
08/05 12:00 23.1 87 17.98 20.8 11 15 1013.1 0 39.0 39.0 74.3 196.4 214.6 745.0
08/05 11:50 23.5 85 17.97 20.8 15 19 1013.3 0 38.9 38.8 73.8 195.2 213.3 740.6
08/05 11:40 23.1 86 17.78 20.6 17 24 1013.4 0 38.6 38.6 73.3 193.9 211.5 734.4
08/05 11:30 23 86 17.68 20.5 19 28 1013.6 0 38.3 38.5 73.0 192.9 210.3 730.1
08/05 11:20 23 87 17.88 20.7 19 28 1013.8 0 38.8 38.9 73.9 195.5 213.4 741.0
08/05 11:10 22.9 88 17.98 20.8 17 20 1013.8 0 39.0 39.1 74.5 197.0 215.3 747.3
08/05 11:00 22.8 88 17.88 20.7 17 19 1013.8 0 38.8 39.0 74.1 196.0 214.0 742.9
08/05 10:50 22.7 87 17.58 20.4 20 28 1014.1 0 38.2 38.5 72.8 192.5 209.7 727.9
08/05 10:40 22.7 88 17.78 20.6 13 19 1014.1 0 38.6 38.8 73.8 195.0 212.8 738.7
08/05 10:30 22.5 87 17.38 20.2 15 19 1014.3 0 37.8 38.2 72.1 190.5 207.2 719.3
08/05 10:20 22.5 87 17.38 20.2 15 20 1014.5 0 37.8 38.2 72.1 190.6 207.2 719.4
08/05 10:10 22.6 86 17.28 20.1 17 24 1014.5 0 37.5 38.0 71.5 189.1 205.4 713.1
08/05 10:00 22.7 86 17.37 20.2 19 35 1014.7 0 37.7 38.1 71.9 190.0 206.6 717.0
08/05 09:50 22.7 86 17.37 20.2 17 26 1014.7 0 37.7 38.1 71.9 190.0 206.6 717.0
08/05 09:40 22.7 86 17.37 20.2 15 22 1014.9 0 37.7 38.1 71.9 190.0 206.6 717.1
08/05 09:30 22.6 87 17.48 20.3 20 28 1014.8 0 38.0 38.4 72.5 191.6 208.5 723.9
08/05 09:20 22.5 87 17.38 20.2 15 19 1014.9 0 37.7 38.2 72.1 190.6 207.3 719.6
08/05 09:10 22.6 87 17.48 20.3 1015.1 0 38.0 38.4 72.5 191.7 208.6 724.0
08/05 09:00 22.8 86 17.47 20.3 15 24 1015.1 0 37.9 38.3 72.3 191.0 207.9 721.6
08/05 08:50 22.5 87 17.38 20.2 17 20 1015.2 1 37.7 38.2 72.1 190.7 207.3 719.7
08/05 08:40 22.4 86 17.08 19.9 17 22 1015 1 37.1 37.7 70.8 187.2 203.0 704.5
08/05 08:30 22.4 86 17.08 19.9 17 26 1015.2 1 37.1 37.7 70.8 187.2 203.0 704.6
08/05 08:20 22.4 87 17.28 20.1 20 28 1015.3 1 37.5 38.1 71.8 189.7 206.1 715.4
08/05 08:10 22.6 87 17.48 20.3 19 28 1015.2 1 38.0 38.4 72.5 191.7 208.6 724.1
08/05 08:00 22.3 89 17.57 20.4 20 39 1015.1 1 38.2 38.7 73.2 193.6 210.8 731.8
08/05 07:50 22.3 88 17.38 20.2 17 20 1015.2 1 37.8 38.3 72.3 191.2 207.9 721.6
08/05 07:40 22.1 89 17.37 20.2 19 24 1015.2 1 37.8 38.4 72.5 191.6 208.3 723.0
08/05 07:30 21.9 89 17.17 20 15 28 1015.3 1 37.4 38.1 71.7 189.6 205.8 714.2
08/05 07:20 22.1 88 17.18 20 13 19 1015.2 1 37.4 38.0 71.6 189.2 205.4 712.8
08/05 07:10 22.2 89 17.47 20.3 13 15 1015.2 1 38.0 38.5 72.8 192.6 209.6 727.4
08/05 07:00 21.9 90 17.37 20.2 15 35 1015.2 1 37.8 38.5 72.7 192.1 208.9 724.9
08/05 06:50 21.8 90 17.27 20.1 15 19 1015.2 1 37.6 38.3 72.3 191.1 207.6 720.5
08/05 06:40 21.8 91 17.46 20.3 15 19 1014.8 1 38.0 38.7 73.2 193.4 210.5 730.5
08/05 06:30 21.9 90 17.37 20.2 20 43 1014.8 1 37.8 38.5 72.6 192.0 208.8 724.7
08/05 06:20 21.8 91 17.46 20.3 17 20 1014.8 1 38.0 38.7 73.2 193.4 210.5 730.5
08/05 06:10 21.8 91 17.46 20.3 17 20 1014.9 1 38.0 38.7 73.2 193.4 210.5 730.6
08/05 06:00 21.8 91 17.46 20.3 13 26 1015 1 38.0 38.7 73.2 193.4 210.5 730.6
08/05 05:50 21.6 91 17.26 20.1 13 17 1015 1 37.6 38.4 72.4 191.4 208.0 721.7
08/05 05:40 21.7 90 17.17 20 7 15 1015.2 1 37.4 38.2 71.9 190.1 206.3 716.0
08/05 05:30 21.6 91 17.26 20.1 11 30 1015.2 1 37.6 38.4 72.4 191.4 208.0 721.8
08/05 05:20 21.6 91 17.26 20.1 19 22 1015 1 37.6 38.4 72.4 191.4 208.0 721.7
08/05 05:10 21.4 91 17.06 19.9 15 22 1015 1 37.2 38.1 71.7 189.4 205.4 712.9
08/05 05:00 21.4 91 17.06 19.9 17 35 1014.5 1 37.2 38.1 71.6 189.3 205.3 712.6
08/05 04:50 21.3 92 17.15 19.9 17 28 1014.3 1 37.4 38.3 72.1 190.7 207.0 718.3
08/05 04:40 21.2 92 17.05 19.8 13 20 1014.1 1 37.2 38.1 71.7 189.6 205.7 713.8
08/05 04:30 20.9 92 16.75 19.6 17 30 1014.5 1 36.6 37.7 70.6 186.7 201.9 700.6
08/05 04:20 21 92 16.85 19.6 17 26 1014.5 1 36.8 37.9 71.0 187.7 203.2 705.0
08/05 04:10 20.9 92 16.75 19.6 19 26 1014.3 1 36.6 37.7 70.6 186.6 201.9 700.5
08/05 04:00 20.8 92 16.66 19.5 17 30 1014.4 1 36.4 37.6 70.3 185.8 200.8 696.6
08/05 03:50 21.5 91 17.16 20 17 26 1014.5 1 37.4 38.2 72.0 190.3 206.6 717.0
08/05 03:40 21.4 90 16.87 19.7 11 13 1014.2 0.6 36.8 37.7 70.7 186.9 202.4 702.2
08/05 03:30 21.5 90 16.97 19.8 15 28 1014.2 0.6 37.0 37.9 71.1 187.9 203.6 706.7
08/05 03:20 21.5 90 16.97 19.8 11 15 1014.3 0.6 37.0 37.9 71.1 187.9 203.6 706.7
08/05 03:10 21.6 90 17.07 19.9 11 22 1014.3 0.6 37.2 38.0 71.5 188.9 204.9 711.2
08/05 03:00 21.5 90 16.97 19.8 15 28 1014.4 0.6 37.0 37.9 71.1 187.9 203.7 706.8
08/05 02:50 21.5 90 16.97 19.8 13 20 1014.7 0.6 37.0 37.9 71.1 188.0 203.7 706.9
08/05 02:40 21.6 90 17.07 19.9 9 13 1014.6 0.6 37.2 38.0 71.5 189.0 205.0 711.3
08/05 02:30 21.5 90 16.97 19.8 17 30 1014.3 0.6 37.0 37.9 71.1 187.9 203.6 706.7
08/05 02:20 21.5 90 16.97 19.8 17 22 1014.2 0.6 37.0 37.9 71.1 187.9 203.6 706.7
08/05 02:10 21.5 89 16.78 19.6 19 24 1014.5 0.6 36.6 37.5 70.2 185.6 200.8 696.7
08/05 02:00 21.5 90 16.97 19.8 19 33 1014.6 0.6 37.0 37.9 71.1 187.9 203.7 706.9
08/05 01:50 21.5 89 16.78 19.6 17 30 1014.7 0.6 36.6 37.5 70.2 185.6 200.8 696.8
08/05 01:40 21.6 89 16.88 19.7 20 26 1014.9 0.6 36.8 37.7 70.6 186.6 202.1 701.3
08/05 01:30 21.5 90 16.97 19.8 17 30 1015.2 0.6 37.0 37.9 71.1 188.0 203.8 707.2
08/05 01:20 21.4 91 17.06 19.9 26 33 1015.1 0.6 37.2 38.1 71.7 189.4 205.4 712.9
08/05 01:10 21.4 90 16.87 19.7 15 20 1015.2 0.6 36.8 37.8 70.8 187.0 202.5 702.7
08/05 01:00 21.4 90 16.87 19.7 15 30 1015.1 0.6 36.8 37.8 70.8 187.0 202.5 702.7
08/05 00:50 21.6 91 17.26 20.1 13 17 1015.3 0.6 37.6 38.4 72.4 191.5 208.0 721.9
08/05 00:40 21.4 91 17.06 19.9 11 13 1015.5 0.6 37.2 38.1 71.7 189.5 205.5 713.1
08/05 00:20 21.4 90 16.87 19.7 20 26 1015.5 0.6 36.8 37.8 70.8 187.1 202.5 702.9
08/05 00:10 21.5 91 17.16 20 15 26 1015.5 0.6 37.4 38.3 72.1 190.5 206.8 717.5
08/05 00:00 21.5 91 17.16 20 17 30 1015.8 0.6 37.4 38.3 72.1 190.5 206.8 717.7
07/05 23:50 21.4 91 17.06 19.9 15 19 1015.7 0.6 37.2 38.1 71.7 189.5 205.5 713.2
07/05 23:40 21.4 91 17.06 19.9 13 17 1016.2 0.6 37.2 38.2 71.7 189.6 205.6 713.5
07/05 23:30 21.4 92 17.25 20 13 22 1016.3 0.6 37.6 38.5 72.6 192.0 208.6 723.8
07/05 23:20 21.3 92 17.15 19.9 13 17 1016.3 0.6 37.4 38.4 72.3 191.0 207.3 719.3
07/05 23:10 21.2 92 17.05 19.8 15 19 1016.2 0.6 37.2 38.2 71.9 189.9 206.0 714.8
07/05 23:00 21.2 92 17.05 19.8 15 24 1016.2 0.6 37.2 38.2 71.9 189.9 206.0 714.8
07/05 22:50 21.2 92 17.05 19.8 15 17 1016.3 0.6 37.2 38.2 71.9 190.0 206.0 714.9
07/05 22:40 21.2 93 17.23 20 19 20 1016.4 0.6 37.5 38.6 72.7 192.3 208.8 724.7
07/05 22:30 21.4 94 17.62 20.4 13 20 1016.5 0.6 38.4 39.3 74.4 196.7 214.4 744.0
07/05 22:20 21.3 93 17.33 20.1 20 26 1016.6 0.6 37.7 38.7 73.1 193.3 210.1 729.2
07/05 22:10 21.2 94 17.42 20.2 13 15 1016.6 0.6 38.0 39.0 73.7 194.7 211.8 735.1
07/05 22:00 21.3 94 17.52 20.3 11 19 1016.7 0.6 38.2 39.1 74.1 195.8 213.1 739.6
07/05 21:50 21.4 93 17.43 20.2 9 13 1016.7 0.6 38.0 38.9 73.5 194.3 211.4 733.8
07/05 21:40 21.3 92 17.15 19.9 13 17 1016.5 0.6 37.4 38.4 72.3 191.0 207.3 719.4
07/05 21:30 21.2 91 16.86 19.7 13 22 1016.6 0.6 36.8 37.9 71.0 187.6 203.1 704.8
07/05 21:20 21 91 16.67 19.5 11 15 1016.4 0.6 36.4 37.6 70.3 185.7 200.7 696.3
07/05 21:10 21 92 16.85 19.6 15 19 1016.7 0.6 36.7 38.0 71.1 188.0 203.5 706.1
07/05 21:00 21.1 93 17.13 19.9 19 30 1017 0.6 37.3 38.5 72.4 191.3 207.6 720.5
07/05 20:50 21.1 93 17.13 19.9 17 20 1016.9 0.6 37.3 38.5 72.4 191.3 207.6 720.4
07/05 20:40 21.1 93 17.13 19.9 13 19 1016.9 0.6 37.3 38.5 72.4 191.3 207.6 720.4
07/05 20:30 21 94 17.22 20 17 30 1016.9 0.6 37.5 38.7 72.9 192.7 209.3 726.3
07/05 20:20 21.1 94 17.32 20.1 15 19 1017 0.6 37.7 38.8 73.3 193.8 210.6 730.8
07/05 20:10 21.1 95 17.5 20.3 13 17 1017.3 0.6 38.1 39.2 74.2 196.1 213.5 740.8
07/05 20:00 20.8 95 17.2 20 13 19 1017.5 0.6 37.5 38.8 73.1 193.1 209.6 727.4
07/05 19:50 20.8 94 17.02 19.8 13 15 1017.6 0.6 37.1 38.4 72.2 190.8 206.8 717.7

Last Refresh: 08-May-2026 12:08:17

Bureau of Meteorology